Time;durP1;ratioP1;P1;durP2;ratioP2;P2;SDS_P1;SDS_P2;PMS_P1;PMS_P2;Temp;Humidity;BMP_temperature;BMP_pressure;BME280_temperature;BME280_humidity;BME280_pressure;Samples;Min_cycle;Max_cycle;Signal;HPM_P1;HPM_P2
2022/04/14 06:21:27;;;;;;;35.75;23.35;;;;;;;14.77;65.64;99156.63;2568056;46;20377;-64
2022/04/14 06:23:57;;;;;;;39.13;24.27;;;;;;;14.90;65.60;99149.63;2620276;54;20189;-65
2022/04/14 06:26:27;;;;;;;37.20;23.60;;;;;;;14.93;65.33;99158.00;2619511;54;20031;-65
2022/04/14 06:28:56;;;;;;;33.83;22.65;;;;;;;14.96;65.41;99148.78;2619163;54;20574;-65
2022/04/14 06:31:26;;;;;;;33.05;23.23;;;;;;;15.03;64.86;99157.56;2620797;31;20444;-64
2022/04/14 06:33:56;;;;;;;31.65;22.77;;;;;;;15.10;64.37;99155.66;2619588;46;20053;-64
2022/04/14 06:36:28;;;;;;;35.15;24.15;;;;;;;15.14;64.04;99158.72;2629715;39;20060;-65
2022/04/14 06:38:58;;;;;;;33.53;23.05;;;;;;;15.16;64.08;99167.31;2620303;54;20030;-65
2022/04/14 06:41:27;;;;;;;28.98;22.40;;;;;;;15.16;64.01;99165.47;2620451;54;20038;-65
2022/04/14 06:43:57;;;;;;;32.20;24.02;;;;;;;15.26;64.09;99154.34;2620297;54;20034;-65
2022/04/14 06:46:29;;;;;;;33.15;24.23;;;;;;;15.35;63.97;99159.22;2619723;54;20034;-64
2022/04/14 06:48:59;;;;;;;33.25;23.42;;;;;;;15.46;63.43;99167.53;2620120;54;20042;-64
2022/04/14 06:51:31;;;;;;;33.72;23.88;;;;;;;15.54;62.82;99164.63;2622655;39;20471;-64
2022/04/14 06:54:01;;;;;;;28.58;20.90;;;;;;;15.45;63.06;99160.59;2622167;54;20038;-65
2022/04/14 06:56:30;;;;;;;28.27;22.58;;;;;;;15.60;62.88;99158.44;2623065;47;20026;-65
2022/04/14 06:59:00;;;;;;;32.40;22.27;;;;;;;15.78;62.63;99158.53;2623473;54;20033;-64
2022/04/14 07:01:30;;;;;;;29.75;22.15;;;;;;;15.92;61.90;99156.56;2623391;54;20034;-65
2022/04/14 07:04:00;;;;;;;29.73;22.50;;;;;;;16.08;61.88;99158.69;2622993;47;20038;-65
2022/04/14 07:06:32;;;;;;;31.00;22.80;;;;;;;16.21;61.24;99165.75;2623507;54;20070;-64
2022/04/14 07:09:02;;;;;;;33.25;22.13;;;;;;;16.31;60.98;99170.56;2621858;54;20045;-65
2022/04/14 07:11:31;;;;;;;29.13;20.83;;;;;;;16.34;60.71;99173.59;2622100;54;20057;-66
2022/04/14 07:14:01;;;;;;;44.97;22.90;;;;;;;16.30;60.87;99177.75;2622555;54;20034;-66
2022/04/14 07:16:31;;;;;;;30.20;21.15;;;;;;;16.30;60.84;99172.41;2622590;54;20037;-66
2022/04/14 07:19:00;;;;;;;30.23;22.67;;;;;;;16.36;60.52;99170.72;2622502;39;20423;-66
2022/04/14 07:21:33;;;;;;;28.35;21.27;;;;;;;16.42;60.32;99172.50;2621436;54;20046;-66
2022/04/14 07:24:02;;;;;;;29.73;22.63;;;;;;;16.55;60.21;99174.22;2619600;46;20054;-66
2022/04/14 07:26:32;;;;;;;29.85;21.80;;;;;;;16.66;60.15;99176.16;2619967;54;20045;-64
2022/04/14 07:29:02;;;;;;;29.90;22.23;;;;;;;16.82;59.65;99177.44;2619017;54;20030;-67
2022/04/14 07:31:32;;;;;;;30.33;20.73;;;;;;;16.84;59.48;99180.69;2618904;54;20126;-66
2022/04/14 07:34:02;;;;;;;30.85;20.65;;;;;;;16.91;59.25;99180.63;2619152;54;20034;-66
2022/04/14 07:36:34;;;;;;;27.23;20.45;;;;;;;16.96;59.13;99191.44;2619046;47;20057;-66
2022/04/14 07:39:05;;;;;;;27.92;20.60;;;;;;;16.93;59.35;99194.53;2618866;54;20039;-65
2022/04/14 07:41:35;;;;;;;30.58;23.13;;;;;;;16.93;59.23;99194.53;2618538;47;20042;-65
2022/04/14 07:44:05;;;;;;;34.92;22.33;;;;;;;16.91;59.01;99193.97;2619752;54;20042;-65
2022/04/14 07:46:38;;;;;;;28.00;21.75;;;;;;;16.93;59.16;99194.53;2618435;39;20438;-66
2022/04/14 07:49:08;;;;;;;28.90;23.35;;;;;;;17.04;58.98;99204.47;2617859;54;20057;-65
2022/04/14 07:51:40;;;;;;;34.25;23.70;;;;;;;17.03;58.89;99205.53;2617853;54;20037;-66
2022/04/14 07:54:10;;;;;;;28.85;21.73;;;;;;;17.03;58.86;99205.53;2617571;47;20038;-66
2022/04/14 07:56:40;;;;;;;26.73;21.02;;;;;;;17.05;59.10;99206.91;2619466;46;20046;-64
2022/04/14 07:59:09;;;;;;;26.67;20.33;;;;;;;17.17;58.72;99206.16;2619512;54;20034;-65
2022/04/14 08:01:39;;;;;;;29.90;21.60;;;;;;;17.07;58.53;99209.38;2619878;54;20042;-65
2022/04/14 08:04:09;;;;;;;32.67;21.40;;;;;;;17.09;58.71;99209.97;2619931;54;20028;-65
2022/04/14 08:06:41;;;;;;;32.65;22.50;;;;;;;17.31;58.43;99207.63;2621021;54;20577;-65
2022/04/14 08:09:18;;;;;;;31.92;22.35;;;;;;;17.39;58.25;99218.00;2621602;54;20050;-65
2022/04/14 08:11:47;;;;;;;27.30;20.67;;;;;;;17.33;58.12;99221.56;2621542;54;20044;-65
2022/04/14 08:14:17;;;;;;;31.95;22.65;;;;;;;17.32;58.08;99226.09;2621439;39;20439;-65
2022/04/14 08:16:47;;;;;;;43.42;24.02;;;;;;;17.25;58.40;99225.38;2620325;54;20033;-65
2022/04/14 08:19:17;;;;;;;30.60;22.23;;;;;;;17.32;58.22;99226.09;2619512;54;20027;-65
2022/04/14 08:21:50;;;;;;;28.50;21.65;;;;;;;17.46;57.96;99229.41;2620156;54;20038;-65
2022/04/14 08:24:21;;;;;;;27.13;21.63;;;;;;;17.48;57.94;99230.00;2620044;54;20138;-65
2022/04/14 08:26:50;;;;;;;33.63;22.98;;;;;;;17.56;57.56;99231.53;2619868;54;20042;-64
2022/04/14 08:29:20;;;;;;;30.02;22.05;;;;;;;17.44;57.21;99228.81;2624519;39;20442;-65
2022/04/14 08:31:50;;;;;;;32.80;22.60;;;;;;;17.64;57.26;99230.41;2621876;51;20026;-67
2022/04/14 08:34:19;;;;;;;36.53;21.98;;;;;;;17.72;57.73;99230.91;2620339;54;20030;-65
2022/04/14 08:36:52;;;;;;;30.92;21.92;;;;;;;18.03;56.57;99229.81;2619857;54;20027;-66
2022/04/14 08:39:22;;;;;;;26.73;19.52;;;;;;;18.17;56.26;99233.09;2619422;54;20052;-66
2022/04/14 08:42:01;;;;;;;26.80;21.00;;;;;;;18.38;56.07;99230.91;2619877;54;20027;-66
2022/04/14 08:44:34;;;;;;;34.28;21.00;;;;;;;18.53;55.89;99229.38;2620517;54;20038;-67
2022/04/14 08:47:04;;;;;;;34.00;22.52;;;;;;;18.69;55.21;99229.69;2620341;54;20030;-66
2022/04/14 08:49:34;;;;;;;25.45;20.88;;;;;;;18.76;54.33;99235.78;2621157;54;20038;-66
2022/04/14 08:52:08;;;;;;;26.08;20.15;;;;;;;18.53;54.43;99233.91;2620633;54;20034;-65
2022/04/14 08:54:38;;;;;;;;;;;;;;;18.54;53.78;99235.56;2620423;54;20026;-65
2022/04/14 08:57:09;;;;;;;25.55;19.60;;;;;;;18.38;54.76;99233.56;2620277;54;19962;-65
2022/04/14 08:59:40;;;;;;;24.48;19.20;;;;;;;18.59;54.60;99240.19;2620518;54;20038;-67
2022/04/14 09:02:16;;;;;;;28.42;22.63;;;;;;;18.74;53.63;99232.53;2620874;54;20033;-66
2022/04/14 09:04:46;;;;;;;30.00;21.30;;;;;;;18.73;53.07;99236.25;2620246;47;20034;-65
2022/04/14 09:07:19;;;;;;;26.85;21.38;;;;;;;18.76;52.77;99241.13;2620041;54;20035;-66
2022/04/14 09:09:48;;;;;;;23.57;18.80;;;;;;;18.59;52.97;99242.88;2619461;47;20057;-66
2022/04/14 09:12:19;;;;;;;21.25;16.92;;;;;;;18.34;53.41;99246.59;2619957;54;20038;-66
2022/04/14 09:14:49;;;;;;;24.63;19.40;;;;;;;18.28;54.16;99240.31;2620168;54;20026;-65
2022/04/14 09:17:19;;;;;;;19.77;15.32;;;;;;;18.56;53.20;99239.59;2619653;54;20142;-67
2022/04/14 09:19:49;;;;;;;18.48;14.73;;;;;;;18.65;52.22;99244.59;2619331;54;20027;-65
2022/04/14 09:22:21;;;;;;;18.65;13.75;;;;;;;18.85;52.60;99244.28;2619231;54;20030;-65
2022/04/14 09:24:52;;;;;;;17.95;13.50;;;;;;;18.80;51.41;99250.34;2619596;54;20539;-66
2022/04/14 09:27:27;;;;;;;17.98;13.63;;;;;;;18.87;50.61;99243.00;2618896;54;20034;-67
2022/04/14 09:29:58;;;;;;;19.23;14.25;;;;;;;18.88;50.34;99254.53;2619903;54;20542;-66
2022/04/14 09:32:33;;;;;;;18.45;14.30;;;;;;;18.86;50.83;99245.88;2619556;46;20034;-66
2022/04/14 09:35:04;;;;;;;18.75;15.15;;;;;;;18.74;51.14;99244.06;2619490;54;20035;-64
2022/04/14 09:37:39;;;;;;;16.35;14.65;;;;;;;18.88;50.93;99239.25;2619502;54;20577;-66
2022/04/14 09:40:11;;;;;;;19.05;13.85;;;;;;;19.05;51.11;99234.78;2619971;54;20566;-65
2022/04/14 09:42:43;;;;;;;21.30;16.13;;;;;;;19.28;50.30;99239.28;2619603;54;20030;-65
2022/04/14 09:45:20;;;;;;;18.00;15.07;;;;;;;19.46;50.14;99245.50;2619465;54;20045;-65
2022/04/14 09:48:09;;;;;;;18.30;14.85;;;;;;;19.60;51.10;99238.81;2618884;54;20042;-65
2022/04/14 09:50:43;;;;;;;18.42;13.07;;;;;;;19.79;50.80;99236.72;2619238;54;20038;-65
2022/04/14 09:53:18;;;;;;;18.92;14.07;;;;;;;19.79;50.90;99242.09;2619139;54;20030;-65
2022/04/14 09:55:59;;;;;;;16.90;14.30;;;;;;;19.79;50.64;99234.84;2619732;39;20459;-67
2022/04/14 09:58:29;;;;;;;22.48;14.27;;;;;;;19.94;49.96;99244.25;2619162;39;20423;-65
2022/04/14 10:01:00;;;;;;;14.55;11.73;;;;;;;19.92;49.29;99246.34;2619397;39;20427;-65
2022/04/14 10:03:31;;;;;;;13.20;9.25;;;;;;;19.86;48.66;99253.50;2619543;54;20026;-66
2022/04/14 10:06:07;;;;;;;13.85;10.18;;;;;;;19.75;48.73;99244.44;2619270;47;20121;-67
2022/04/14 10:08:51;;;;;;;17.00;12.15;;;;;;;19.65;48.61;99246.16;2618479;47;20061;-67
2022/04/14 10:11:27;;;;;;;12.98;11.00;;;;;;;19.54;48.57;99245.09;2619178;54;20026;-66
2022/04/14 10:14:11;;;;;;;14.65;11.52;;;;;;;19.36;49.07;99245.31;2619128;54;20042;-66
2022/04/14 10:16:42;;;;;;;14.23;10.25;;;;;;;19.42;48.84;99245.16;2620051;50;20038;-66
2022/04/14 10:19:12;;;;;;;16.25;10.93;;;;;;;19.36;48.84;99245.31;2618896;54;20027;-66
2022/04/14 10:21:43;;;;;;;13.52;11.27;;;;;;;19.14;49.41;99243.25;2620261;54;20026;-66
2022/04/14 10:24:17;;;;;;;17.25;11.93;;;;;;;19.02;49.50;99250.50;2621467;47;20558;-65
2022/04/14 10:26:48;;;;;;;18.67;12.52;;;;;;;19.06;50.20;99243.63;2619538;54;20043;-65
2022/04/14 10:29:20;;;;;;;22.05;12.40;;;;;;;19.00;50.29;99248.09;2619486;54;20041;-65
2022/04/14 10:31:54;;;;;;;14.57;12.18;;;;;;;18.78;50.81;99233.69;2619218;54;20030;-66
2022/04/14 10:34:24;;;;;;;13.73;10.95;;;;;;;18.89;50.88;99243.56;2619112;47;20031;-68
2022/04/14 10:36:55;;;;;;;14.32;12.02;;;;;;;19.05;50.89;99242.00;2618738;54;20034;-65
2022/04/14 10:39:29;;;;;;;16.48;11.52;;;;;;;19.08;50.27;99241.56;2618809;47;20023;-66
2022/04/14 10:42:00;;;;;;;14.13;10.18;;;;;;;18.96;50.77;99254.16;2618879;54;20041;-66
2022/04/14 10:44:47;;;;;;;13.38;9.73;;;;;;;19.16;50.50;99240.38;2619912;39;20442;-66
2022/04/14 10:47:51;;;;;;;13.65;10.15;;;;;;;19.29;50.38;99246.25;2619152;54;20030;-65
2022/04/14 10:50:22;;;;;;;18.98;10.93;;;;;;;19.35;49.65;99241.81;2619151;54;20037;-65
2022/04/14 10:53:12;;;;;;;12.43;9.70;;;;;;;19.28;49.58;99247.31;2619496;54;20038;-65
2022/04/14 10:55:49;;;;;;;11.52;10.13;;;;;;;19.34;49.46;99247.41;2619766;39;20507;-64
2022/04/14 10:58:48;;;;;;;13.10;9.73;;;;;;;19.53;49.01;99251.53;2620254;54;20034;-66
2022/04/14 11:01:18;;;;;;;12.43;8.75;;;;;;;19.64;48.46;99252.56;2620060;39;20428;-71
2022/04/14 11:03:52;;;;;;;13.10;9.75;;;;;;;19.77;48.09;99247.72;2623186;54;20049;-66
2022/04/14 11:06:52;;;;;;;11.35;9.23;;;;;;;19.69;47.35;99250.78;2623311;47;20030;-66
2022/04/14 11:09:57;;;;;;;10.27;7.28;;;;;;;19.69;46.96;99258.84;2620538;54;20146;-64
2022/04/14 11:12:32;;;;;;;11.38;8.05;;;;;;;19.93;46.74;99253.34;2620091;54;20043;-65
2022/04/14 11:15:03;;;;;;;12.77;8.43;;;;;;;19.98;45.73;99251.56;2620244;54;20031;-64
2022/04/14 11:17:58;;;;;;;9.95;7.97;;;;;;;20.09;46.33;99259.78;2619823;54;20038;-64
2022/04/14 11:21:00;;;;;;;9.93;6.75;;;;;;;20.06;45.56;99253.03;2620011;54;20026;-65
2022/04/14 11:23:31;;;;;;;7.65;6.18;;;;;;;20.16;45.01;99261.22;2619656;54;20034;-65
2022/04/14 11:26:10;;;;;;;8.73;6.03;;;;;;;19.66;45.67;99258.50;2620329;54;20042;-66
2022/04/14 11:28:46;;;;;;;8.52;5.93;;;;;;;19.57;45.68;99246.50;2619609;54;20054;-65
2022/04/14 11:31:26;;;;;;;8.10;5.90;;;;;;;19.76;45.05;99242.59;2619894;54;20041;-65
2022/04/14 11:33:58;;;;;;;6.30;5.53;;;;;;;19.88;45.17;99246.03;2620362;54;20030;-65
2022/04/14 11:36:44;;;;;;;9.35;5.82;;;;;;;19.93;44.41;99242.63;2619920;54;20129;-66
2022/04/14 11:39:23;;;;;;;7.82;5.40;;;;;;;19.93;44.61;99237.25;2619429;54;20041;-65
2022/04/14 11:41:54;;;;;;;8.25;6.05;;;;;;;19.90;44.09;99241.22;2619485;50;20038;-65
2022/04/14 11:44:31;;;;;;;11.23;5.70;;;;;;;19.86;44.39;99234.72;2619641;54;20038;-65
2022/04/14 11:47:01;;;;;;;8.73;5.78;;;;;;;19.98;44.15;99240.00;2619287;47;20026;-65
2022/04/14 11:49:32;;;;;;;6.88;5.65;;;;;;;20.09;43.79;99227.59;2619208;47;20030;-65
2022/04/14 11:52:04;;;;;;;8.20;4.97;;;;;;;20.13;43.56;99226.84;2620208;54;20094;-66
2022/04/14 11:54:38;;;;;;;11.57;10.40;;;;;;;20.09;43.77;99222.22;2619440;54;20034;-65
2022/04/14 11:57:12;;;;;;;26.20;17.63;;;;;;;20.26;43.95;99231.06;2618925;54;20121;-65
2022/04/14 11:59:46;;;;;;;8.68;6.20;;;;;;;20.32;44.10;99224.69;2619492;54;20037;-65
2022/04/14 12:02:19;;;;;;;9.82;7.18;;;;;;;20.58;43.44;99223.25;2620035;54;20038;-65
2022/04/14 12:04:51;;;;;;;17.02;12.75;;;;;;;20.77;43.99;99221.88;2620092;54;20022;-65
2022/04/14 12:07:22;;;;;;;8.40;5.75;;;;;;;20.90;43.16;99226.09;2619712;54;20578;-65
2022/04/14 12:10:00;;;;;;;7.07;5.00;;;;;;;20.95;43.53;99222.66;2619379;54;20023;-66
2022/04/14 12:12:33;;;;;;;8.20;5.53;;;;;;;20.90;42.49;99226.09;2620171;54;20059;-66
2022/04/14 12:15:07;;;;;;;7.88;5.55;;;;;;;20.89;42.77;99215.56;2619040;54;20031;-66
2022/04/14 12:17:39;;;;;;;8.55;5.88;;;;;;;20.67;43.49;99213.69;2618821;54;20051;-66
2022/04/14 12:20:10;;;;;;;7.35;5.90;;;;;;;20.45;44.72;99213.66;2619813;54;20038;-66
2022/04/14 12:22:40;;;;;;;9.88;7.43;;;;;;;20.46;44.94;99211.75;2619542;54;20539;-64
2022/04/14 12:25:12;;;;;;;6.97;5.75;;;;;;;20.48;44.70;99215.84;2620106;54;20034;-64
2022/04/14 12:27:42;;;;;;;10.98;7.53;;;;;;;20.62;44.51;99213.63;2619275;54;20043;-65
2022/04/14 12:30:16;;;;;;;8.52;5.70;;;;;;;20.65;44.63;99213.13;2618965;54;20561;-65
2022/04/14 12:32:50;;;;;;;10.07;6.70;;;;;;;20.70;44.27;99212.41;2620161;54;20074;-64
2022/04/14 12:35:32;;;;;;;6.82;5.53;;;;;;;20.76;44.31;99217.56;2619845;54;20026;-64
2022/04/14 12:38:13;;;;;;;7.45;5.75;;;;;;;20.65;44.25;99210.44;2618481;54;20030;-64
2022/04/14 12:41:00;;;;;;;8.05;5.70;;;;;;;20.59;43.92;99203.38;2618238;54;20044;-65
2022/04/14 12:43:33;;;;;;;9.07;5.82;;;;;;;20.54;44.34;99203.31;2618939;54;20043;-65
2022/04/14 12:46:22;;;;;;;8.55;5.22;;;;;;;20.45;44.80;99199.38;2619172;54;20090;-66
2022/04/14 12:49:02;;;;;;;8.18;6.03;;;;;;;20.44;44.57;99197.75;2618782;54;20123;-64
2022/04/14 12:51:56;;;;;;;7.28;4.68;;;;;;;20.57;44.57;99193.94;2618795;54;20053;-65
2022/04/14 12:54:26;;;;;;;9.65;6.78;;;;;;;20.62;44.31;99202.88;2618880;54;20575;-65
2022/04/14 12:57:01;;;;;;;8.30;6.03;;;;;;;20.68;43.74;99201.06;2618471;54;20034;-65
2022/04/14 12:59:32;;;;;;;5.57;4.25;;;;;;;20.65;43.91;99207.75;2619507;54;20622;-67
2022/04/14 13:02:10;;;;;;;9.07;5.80;;;;;;;20.67;43.59;99207.50;2619440;54;20041;-65
2022/04/14 13:04:42;;;;;;;8.82;5.25;;;;;;;20.76;43.73;99192.59;2619674;54;20034;-66
2022/04/14 13:07:14;;;;;;;6.35;4.45;;;;;;;20.94;43.21;99194.97;2618731;47;20154;-66
2022/04/14 13:10:00;;;;;;;8.02;5.00;;;;;;;21.08;42.81;99189.22;2619504;54;20045;-67
2022/04/14 13:12:39;;;;;;;7.35;4.72;;;;;;;21.28;42.35;99192.94;2619056;54;20814;-66
2022/04/14 13:15:11;;;;;;;6.65;4.30;;;;;;;20.92;42.62;99190.91;2619490;54;20155;-66
2022/04/14 13:17:44;;;;;;;8.40;5.38;;;;;;;20.93;43.20;99187.94;2619082;54;20555;-65
2022/04/14 13:20:17;;;;;;;5.20;3.40;;;;;;;20.95;43.14;99187.72;2619562;54;20085;-66
2022/04/14 13:22:49;;;;;;;6.40;3.92;;;;;;;21.12;42.87;99190.31;2619237;47;20027;-66
2022/04/14 13:25:19;;;;;;;6.50;4.32;;;;;;;21.15;42.57;99192.50;2619371;54;20046;-65
2022/04/14 13:27:49;;;;;;;9.18;6.25;;;;;;;21.29;42.02;99191.03;2619137;54;20034;-65
2022/04/14 13:30:18;;;;;;;4.80;3.88;;;;;;;21.11;41.40;99186.81;2619101;54;20034;-66
2022/04/14 13:32:50;;;;;;;9.30;4.57;;;;;;;20.97;41.95;99189.06;2618933;47;20022;-66
2022/04/14 13:35:21;;;;;;;9.70;4.95;;;;;;;20.87;42.19;99196.22;2618898;46;20034;-67
2022/04/14 13:37:53;;;;;;;8.93;4.45;;;;;;;20.62;42.38;99194.84;2620023;54;20043;-66
2022/04/14 13:40:23;;;;;;;7.22;4.38;;;;;;;20.65;42.48;99198.88;2621895;54;20045;-66
2022/04/14 13:42:53;;;;;;;8.45;4.50;;;;;;;20.62;42.14;99197.53;2625030;54;20098;-66
2022/04/14 13:45:23;;;;;;;4.97;3.35;;;;;;;20.69;42.54;99195.44;2625190;47;20035;-67
2022/04/14 13:47:55;;;;;;;7.38;3.38;;;;;;;20.99;42.19;99191.53;2625474;54;20058;-66
2022/04/14 13:50:25;;;;;;;5.57;3.53;;;;;;;21.22;41.78;99187.72;2625264;47;20035;-66
2022/04/14 13:52:55;;;;;;;7.43;3.65;;;;;;;21.15;41.76;99187.16;2623479;54;20047;-66
2022/04/14 13:55:24;;;;;;;5.47;3.97;;;;;;;21.15;41.97;99185.25;2619786;54;20034;-66
2022/04/14 13:57:54;;;;;;;5.28;3.15;;;;;;;21.22;41.79;99193.09;2619063;54;20037;-66
2022/04/14 14:00:25;;;;;;;4.15;3.55;;;;;;;21.16;42.21;99192.25;2620013;39;20439;-65
2022/04/14 14:02:57;;;;;;;4.40;3.40;;;;;;;21.13;42.11;99187.38;2618777;54;20022;-65
2022/04/14 14:05:28;;;;;;;5.97;3.60;;;;;;;21.06;42.29;99194.00;2619499;54;20564;-65
2022/04/14 14:07:57;;;;;;;6.00;4.20;;;;;;;20.98;42.33;99197.94;2619103;54;20514;-67
2022/04/14 14:10:27;;;;;;;6.90;3.72;;;;;;;20.97;42.55;99205.19;2618832;46;20050;-66
2022/04/14 14:12:57;;;;;;;4.93;4.05;;;;;;;21.01;42.02;99192.88;2620035;54;20102;-65
2022/04/14 14:15:27;;;;;;;6.07;3.60;;;;;;;21.09;42.33;99190.81;2619111;54;20131;-66
2022/04/14 14:17:59;;;;;;;20.05;4.10;;;;;;;21.01;42.31;99190.19;2618575;47;20030;-65
2022/04/14 14:20:30;;;;;;;5.47;3.90;;;;;;;20.98;42.22;99195.25;2619326;54;20027;-65
2022/04/14 14:23:00;;;;;;;7.22;4.63;;;;;;;20.88;42.18;99200.53;2619455;54;20043;-65
2022/04/14 14:25:31;;;;;;;6.80;3.72;;;;;;;20.59;42.61;99199.88;2619227;54;20570;-66
2022/04/14 14:28:00;;;;;;;4.90;3.40;;;;;;;20.40;42.93;99207.38;2618840;54;20546;-67
2022/04/14 14:30:30;;;;;;;4.57;3.90;;;;;;;20.50;43.75;99210.25;2618951;54;20045;-66
2022/04/14 14:33:02;;;;;;;5.70;4.03;;;;;;;20.68;43.61;99203.75;2620032;54;20038;-65
2022/04/14 14:35:33;;;;;;;7.20;4.32;;;;;;;20.64;43.52;99208.00;2619997;54;20034;-66
2022/04/14 14:38:03;;;;;;;6.60;4.18;;;;;;;20.51;44.52;99217.22;2618005;54;20038;-68
2022/04/14 14:40:33;;;;;;;4.88;3.65;;;;;;;20.38;44.59;99207.63;2618502;39;20438;-67
2022/04/14 14:43:03;;;;;;;6.88;4.22;;;;;;;20.41;44.78;99211.66;2619564;39;20435;-66
2022/04/14 14:45:33;;;;;;;6.32;3.88;;;;;;;20.56;45.10;99217.28;2622746;54;20031;-66
2022/04/14 14:48:06;;;;;;;6.82;4.15;;;;;;;20.57;44.95;99218.91;2622623;39;20454;-66
2022/04/14 14:50:35;;;;;;;6.68;4.50;;;;;;;20.65;44.58;99218.50;2622952;54;20033;-69
2022/04/14 14:53:07;;;;;;;5.28;4.00;;;;;;;20.60;44.88;99220.31;2622984;54;20038;-66
2022/04/14 14:55:38;;;;;;;5.28;3.42;;;;;;;20.53;44.73;99215.09;2624166;39;20413;-67
2022/04/14 15:00:51;;;;;;;5.13;3.58;;;;;;;20.55;44.59;99223.72;2622064;54;20034;-68
2022/04/14 15:03:23;;;;;;;5.93;3.53;;;;;;;20.52;44.73;99225.03;2621822;47;20041;-67
2022/04/14 15:05:53;;;;;;;5.90;4.40;;;;;;;20.39;44.88;99236.09;2619085;39;20439;-66
2022/04/14 15:08:22;;;;;;;4.28;3.50;;;;;;;20.51;44.99;99227.97;2618036;39;20439;-65
2022/04/14 15:10:52;;;;;;;4.68;3.40;;;;;;;20.64;44.98;99224.94;2619673;46;20053;-65
2022/04/14 15:13:22;;;;;;;4.68;2.97;;;;;;;20.64;44.58;99230.31;2620866;54;20045;-65
2022/04/14 15:15:56;;;;;;;5.90;3.78;;;;;;;20.73;44.54;99228.00;2621801;31;20500;-66
2022/04/14 15:18:28;;;;;;;5.35;4.05;;;;;;;20.66;44.43;99232.75;2621313;54;20041;-65
2022/04/14 15:20:58;;;;;;;6.28;3.70;;;;;;;20.70;44.68;99231.19;2621630;54;20559;-68
2022/04/14 15:23:28;;;;;;;8.20;2.80;;;;;;;20.63;44.22;99223.31;2621436;54;20046;-67
2022/04/14 15:25:58;;;;;;;3.15;2.45;;;;;;;20.82;44.58;99226.53;2622188;54;20065;-67
2022/04/14 15:28:30;;;;;;;6.88;3.00;;;;;;;20.94;43.51;99221.00;2621892;54;20034;-66
2022/04/14 15:31:02;;;;;;;6.93;2.73;;;;;;;20.42;44.44;99226.75;2621626;47;20282;-65
2022/04/14 15:33:34;;;;;;;3.03;2.60;;;;;;;20.54;44.72;99224.81;2621604;54;20045;-68
2022/04/14 15:36:04;;;;;;;3.33;2.58;;;;;;;20.84;44.23;99221.69;2621814;54;20045;-66
2022/04/14 15:38:34;;;;;;;30.50;24.33;;;;;;;20.95;43.67;99217.28;2620730;54;20132;-68
2022/04/14 15:41:04;;;;;;;6.10;3.38;;;;;;;21.00;43.80;99214.66;2621230;47;20538;-66
2022/04/14 15:43:35;;;;;;;5.82;3.53;;;;;;;21.11;43.00;99215.59;2621527;54;20061;-65
2022/04/14 15:46:05;;;;;;;5.20;2.88;;;;;;;21.10;42.95;99217.44;2622706;39;20427;-65
2022/04/14 15:48:37;;;;;;;6.13;3.33;;;;;;;21.06;43.36;99227.06;2621555;54;20041;-65
2022/04/14 15:51:07;;;;;;;5.20;2.90;;;;;;;20.88;43.92;99222.03;2622013;54;20034;-66
2022/04/14 15:53:37;;;;;;;4.65;3.15;;;;;;;20.60;43.68;99226.47;2621036;54;20042;-66
2022/04/14 15:56:08;;;;;;;3.75;3.00;;;;;;;20.42;44.24;99232.13;2622014;54;20038;-66
2022/04/14 15:58:37;;;;;;;4.88;2.92;;;;;;;20.26;44.95;99225.69;2620406;54;20038;-69
2022/04/14 16:01:07;;;;;;;5.32;3.53;;;;;;;20.08;45.01;99223.25;2619959;54;20038;-66
2022/04/14 16:03:39;;;;;;;4.10;2.70;;;;;;;20.03;45.16;99219.44;2619403;47;20031;-66
2022/04/14 16:06:09;;;;;;;5.38;2.90;;;;;;;19.85;45.48;99227.72;2619203;47;20038;-66
2022/04/14 16:08:56;;;;;;;8.25;4.40;;;;;;;19.80;45.26;99230.34;2618176;47;20559;-65
2022/04/14 16:14:08;;;;;;;4.28;2.95;;;;;;;19.84;45.21;99234.16;2618483;54;20061;-65
2022/04/14 16:16:37;;;;;;;5.60;3.08;;;;;;;19.90;45.13;99235.03;2619467;54;20038;-65
2022/04/14 16:19:09;;;;;;;7.75;3.90;;;;;;;19.94;45.30;99236.19;2619799;54;20034;-67
2022/04/14 16:21:45;;;;;;;5.18;3.17;;;;;;;19.85;45.03;99238.47;2619136;54;20038;-65
2022/04/14 16:24:16;;;;;;;5.97;3.00;;;;;;;19.66;45.38;99245.09;2620113;54;20031;-65
2022/04/14 16:26:47;;;;;;;7.15;2.63;;;;;;;19.50;45.50;99250.13;2619751;54;20082;-65
2022/04/14 16:29:18;;;;;;;2.90;2.60;;;;;;;19.33;45.80;99257.31;2619564;47;20043;-67
2022/04/14 16:31:48;;;;;;;3.60;1.90;;;;;;;19.20;46.19;99257.59;2619963;54;20034;-65
2022/04/14 16:34:21;;;;;;;4.68;2.10;;;;;;;19.07;46.42;99266.72;2619209;54;20030;-66
2022/04/14 16:36:50;;;;;;;5.23;2.20;;;;;;;19.07;46.35;99260.56;2619554;47;20043;-65
2022/04/14 16:39:20;;;;;;;2.83;1.90;;;;;;;19.02;46.41;99255.88;2619687;47;20038;-66
2022/04/14 16:41:50;;;;;;;3.30;2.33;;;;;;;18.96;46.89;99265.69;2619881;54;20574;-66
2022/04/14 16:44:20;;;;;;;5.43;2.15;;;;;;;18.94;46.84;99262.44;2619800;54;20038;-68
2022/04/14 16:46:49;;;;;;;5.53;2.47;;;;;;;18.91;46.86;99264.78;2619925;54;20031;-66
2022/04/14 16:49:22;;;;;;;4.60;2.30;;;;;;;18.81;46.71;99268.03;2620178;54;20152;-66
2022/04/14 16:51:51;;;;;;;3.20;2.25;;;;;;;18.81;47.27;99260.00;2619199;54;20035;-66
2022/04/14 16:54:21;;;;;;;3.17;1.98;;;;;;;18.69;47.33;99265.31;2620287;54;20035;-65
2022/04/14 16:56:50;;;;;;;3.30;2.17;;;;;;;18.70;47.32;99263.53;2620023;54;20042;-69
2022/04/14 16:59:20;;;;;;;4.03;2.30;;;;;;;18.69;46.53;99262.66;2620089;54;20043;-66
2022/04/14 17:01:50;;;;;;;3.40;2.10;;;;;;;18.70;46.62;99263.53;2619438;54;20035;-67
2022/04/14 17:04:23;;;;;;;2.72;1.60;;;;;;;18.73;46.73;99263.84;2619762;47;20046;-65
2022/04/14 17:06:52;;;;;;;4.60;1.63;;;;;;;18.72;46.51;99272.94;2620311;54;20044;-67
2022/04/14 17:09:22;;;;;;;3.38;2.50;;;;;;;18.80;47.28;99277.13;2620264;54;20045;-65
2022/04/14 17:11:52;;;;;;;5.00;1.70;;;;;;;18.71;47.05;99273.19;2619214;47;20027;-66
2022/04/14 17:14:24;;;;;;;3.38;1.48;;;;;;;18.63;46.98;99281.53;2620077;54;20022;-66
2022/04/14 17:16:54;;;;;;;2.80;1.77;;;;;;;18.68;46.92;99278.97;2619826;39;20431;-65
2022/04/14 17:19:27;;;;;;;12.27;8.52;;;;;;;18.72;47.15;99272.94;2620016;54;20129;-65
2022/04/14 17:24:39;;;;;;;10.02;5.90;;;;;;;18.77;47.23;99283.75;2619899;47;20041;-66
2022/04/14 17:27:08;;;;;;;5.68;4.18;;;;;;;18.74;47.16;99281.56;2620645;54;20079;-64
2022/04/14 17:29:38;;;;;;;8.05;5.57;;;;;;;18.72;47.19;99280.97;2620410;54;20070;-66
2022/04/14 17:32:09;;;;;;;13.02;8.60;;;;;;;18.71;47.23;99278.53;2619395;54;20046;-66
2022/04/14 17:34:41;;;;;;;6.40;4.78;;;;;;;18.61;47.23;99281.75;2619850;54;20022;-66
2022/04/14 17:37:11;;;;;;;5.15;3.08;;;;;;;18.60;47.40;99281.97;2619629;54;20046;-65
2022/04/14 17:39:45;;;;;;;5.43;4.03;;;;;;;18.57;47.35;99285.94;2620179;54;20027;-65
2022/04/14 17:42:15;;;;;;;3.47;2.08;;;;;;;18.50;47.12;99285.25;2620284;39;20427;-66
2022/04/14 17:44:44;;;;;;;4.38;2.10;;;;;;;18.42;47.17;99285.59;2619600;54;20034;-66
2022/04/14 17:47:14;;;;;;;4.18;2.08;;;;;;;18.40;47.76;99290.34;2619626;54;20038;-65
2022/04/14 17:49:46;;;;;;;5.18;2.50;;;;;;;18.35;47.88;99291.06;2618899;47;20038;-65
2022/04/14 17:52:17;;;;;;;7.25;2.67;;;;;;;18.29;48.00;99295.47;2619798;54;20038;-65
2022/04/14 17:54:47;;;;;;;3.15;2.42;;;;;;;18.30;47.99;99296.28;2619453;46;20100;-66
2022/04/14 17:57:16;;;;;;;4.97;2.35;;;;;;;18.32;48.19;99294.19;2619211;54;20049;-66
2022/04/14 17:59:46;;;;;;;5.68;2.38;;;;;;;18.29;48.03;99286.63;2620491;54;20038;-66
2022/04/14 18:02:16;;;;;;;4.22;2.40;;;;;;;18.25;47.70;99288.97;2619778;54;20043;-66
2022/04/14 18:04:48;;;;;;;3.72;2.00;;;;;;;18.21;47.98;99293.13;2620128;54;20040;-66
2022/04/14 18:07:17;;;;;;;5.18;2.20;;;;;;;18.20;48.25;99293.34;2619201;54;20543;-65
2022/04/14 18:09:47;;;;;;;3.72;2.20;;;;;;;18.19;47.84;99297.88;2619686;54;20038;-66
2022/04/14 18:12:17;;;;;;;3.97;1.98;;;;;;;18.15;48.03;99304.75;2620724;54;20051;-65
2022/04/14 18:14:48;;;;;;;4.10;2.42;;;;;;;18.15;48.08;99312.78;2621636;39;20464;-65
2022/04/14 18:17:18;;;;;;;7.78;3.13;;;;;;;18.15;48.53;99314.63;2620180;54;20030;-64
2022/04/14 18:19:50;;;;;;;5.15;1.83;;;;;;;18.15;48.20;99311.97;2620645;54;20034;-66